Time;durP1;ratioP1;P1;durP2;ratioP2;P2;SDS_P1;SDS_P2;PMS_P1;PMS_P2;Temp;Humidity;BMP_temperature;BMP_pressure;BME280_temperature;BME280_humidity;BME280_pressure;Samples;Min_cycle;Max_cycle;Signal;HPM_P1;HPM_P2
2021/05/27 02:46:58;;;;;;;1.30;1.30;;;11.00;99.90;;;;;;5582906;22;1278126;-85
2021/05/27 02:49:24;;;;;;;1.98;1.60;;;11.00;99.90;;;;;;4961880;28;86916;-84
2021/05/27 02:51:49;;;;;;;1.38;1.38;;;11.00;99.90;;;;;;4960939;28;87697;-85
2021/05/27 02:54:17;;;;;;;1.75;1.60;;;11.00;99.90;;;;;;4962833;28;87831;-85
2021/05/27 02:56:43;;;;;;;2.53;1.50;;;11.00;99.90;;;;;;4962693;28;87104;-85
2021/05/27 02:59:08;;;;;;;1.48;1.45;;;11.00;99.90;;;;;;4958793;28;86854;-85
2021/05/27 03:01:34;;;;;;;1.48;1.40;;;11.00;99.90;;;;;;4944146;28;90644;-85
2021/05/27 03:04:00;;;;;;;1.60;1.60;;;11.00;99.90;;;;;;4958970;28;86285;-87
2021/05/27 03:06:25;;;;;;;2.15;1.92;;;11.00;99.90;;;;;;4962539;28;86914;-85
2021/05/27 03:08:52;;;;;;;1.73;1.63;;;;;;;;;;4963686;28;86939;-85
2021/05/27 03:11:17;;;;;;;1.98;1.83;;;11.00;99.90;;;;;;4942679;28;92824;-86
2021/05/27 03:13:43;;;;;;;1.92;1.83;;;;;;;;;;4949202;28;87812;-85
2021/05/27 03:16:09;;;;;;;1.50;1.50;;;10.90;99.90;;;;;;4944537;28;86930;-85
2021/05/27 03:18:35;;;;;;;1.55;1.55;;;10.90;99.90;;;;;;4959948;28;87133;-86
2021/05/27 03:21:02;;;;;;;1.80;1.70;;;10.90;99.90;;;;;;4964608;28;87486;-86
2021/05/27 03:23:27;;;;;;;1.67;1.67;;;10.80;99.90;;;;;;4957176;28;86934;-86
2021/05/27 03:25:53;;;;;;;2.00;1.90;;;10.90;99.90;;;;;;4965786;28;86958;-87
2021/05/27 03:28:19;;;;;;;1.95;1.85;;;10.80;99.90;;;;;;4963851;28;86504;-86
2021/05/27 03:30:46;;;;;;;2.08;1.98;;;10.80;99.90;;;;;;4966291;28;86675;-85
2021/05/27 03:33:11;;;;;;;2.30;2.20;;;10.90;99.90;;;;;;4964755;28;86929;-83
2021/05/27 03:35:37;;;;;;;1.95;1.85;;;10.80;99.90;;;;;;4964752;28;87468;-89
2021/05/27 03:38:03;;;;;;;2.17;1.90;;;;;;;;;;4964029;28;86497;-84
2021/05/27 03:40:29;;;;;;;2.08;1.98;;;10.80;99.90;;;;;;4956990;28;86948;-83
2021/05/27 03:42:56;;;;;;;1.80;1.70;;;10.80;99.90;;;;;;4965159;28;87085;-82
2021/05/27 03:45:25;;;;;;;2.10;1.80;;;10.80;99.90;;;;;;4965013;28;86923;-83
2021/05/27 03:47:52;;;;;;;1.15;1.15;;;10.80;99.90;;;;;;4963481;28;86617;-82
2021/05/27 03:50:19;;;;;;;1.92;1.83;;;10.80;99.90;;;;;;4965036;28;86740;-82
2021/05/27 03:52:45;;;;;;;1.42;1.42;;;10.80;99.90;;;;;;4964707;28;87481;-83
2021/05/27 03:55:15;;;;;;;1.77;1.67;;;10.80;99.90;;;;;;4966551;28;87019;-83
2021/05/27 03:57:43;;;;;;;1.83;1.75;;;10.70;99.90;;;;;;4968317;28;87003;-83
2021/05/27 04:02:58;;;;;;;2.15;2.05;;;10.70;99.90;;;;;;4952893;28;90163;-82
2021/05/27 04:08:08;;;;;;;2.15;1.95;;;10.60;99.90;;;;;;4969154;28;86837;-83
2021/05/27 04:10:34;;;;;;;2.20;2.00;;;10.60;99.90;;;;;;4955829;28;88571;-85
2021/05/27 04:13:01;;;;;;;2.53;2.33;;;10.50;99.90;;;;;;4963791;28;86884;-83
2021/05/27 04:15:33;;;;;;;1.92;1.83;;;10.40;99.90;;;;;;4970972;28;86871;-84
2021/05/27 04:18:18;;;;;;;1.80;1.70;;;10.50;99.90;;;;;;4953291;28;85869;-84
2021/05/27 04:20:46;;;;;;;2.30;2.17;;;10.40;99.90;;;;;;4963984;28;88305;-84
2021/05/27 04:23:14;;;;;;;2.22;1.90;;;10.40;99.90;;;;;;4970451;28;87398;-83
2021/05/27 04:25:41;;;;;;;2.33;2.15;;;10.30;99.90;;;;;;4969694;28;87865;-84
2021/05/27 04:28:07;;;;;;;3.58;1.90;;;10.20;99.90;;;;;;4969673;28;87608;-82
2021/05/27 04:31:08;;;;;;;2.20;2.05;;;10.30;99.90;;;;;;4960604;28;87106;-83
2021/05/27 04:33:22;;;;;;;2.28;1.50;;;10.30;99.90;;;;;;4970407;28;86999;-80
2021/05/27 04:35:48;;;;;;;2.50;2.30;;;10.40;99.90;;;;;;4986678;28;86568;-81
2021/05/27 04:38:16;;;;;;;1.92;1.83;;;10.40;99.90;;;;;;4986428;28;86132;-82
2021/05/27 04:40:47;;;;;;;2.33;2.20;;;10.50;99.90;;;;;;4975120;28;88750;-88
2021/05/27 04:43:14;;;;;;;2.00;1.90;;;10.60;99.90;;;;;;4972403;28;87447;-85
2021/05/27 04:45:40;;;;;;;4.43;2.08;;;10.60;99.90;;;;;;4970663;28;86324;-83
2021/05/27 04:48:31;;;;;;;1.90;1.80;;;10.70;99.90;;;;;;4973847;28;86716;-83
2021/05/27 04:50:58;;;;;;;2.03;1.80;;;10.70;99.90;;;;;;4983357;28;87833;-85
2021/05/27 04:53:25;;;;;;;3.05;2.17;;;10.70;99.90;;;;;;4970568;28;87309;-88
2021/05/27 04:55:51;;;;;;;2.83;2.20;;;10.80;99.90;;;;;;4952954;28;86712;-88
2021/05/27 04:58:17;;;;;;;2.35;2.00;;;10.70;99.90;;;;;;4961329;28;87175;-85
2021/05/27 05:00:43;;;;;;;4.10;2.42;;;10.60;99.90;;;;;;4968467;28;86759;-87
2021/05/27 05:03:09;;;;;;;2.50;1.90;;;10.60;99.90;;;;;;4969838;28;86881;-89
2021/05/27 05:05:36;;;;;;;2.10;2.00;;;10.50;99.90;;;;;;4964562;28;86677;-86
2021/05/27 05:08:03;;;;;;;3.08;2.38;;;10.50;99.90;;;;;;4961614;28;86205;-85
2021/05/27 05:10:29;;;;;;;2.33;2.10;;;10.60;99.90;;;;;;4957192;28;88402;-85
2021/05/27 05:12:55;;;;;;;3.85;2.05;;;10.60;99.90;;;;;;4949436;28;88243;-85
2021/05/27 05:15:39;;;;;;;3.22;1.90;;;10.60;99.90;;;;;;4968349;28;88030;-86
2021/05/27 05:18:06;;;;;;;2.88;2.58;;;10.70;99.90;;;;;;4959037;28;86586;-85
2021/05/27 05:20:37;;;;;;;4.28;2.50;;;10.60;99.90;;;;;;4965907;28;87329;-87
2021/05/27 05:23:04;;;;;;;2.85;2.40;;;10.80;99.90;;;;;;4956650;28;87229;-84
2021/05/27 05:25:32;;;;;;;2.90;1.92;;;10.70;99.90;;;;;;4946632;28;86993;-88
2021/05/27 05:27:58;;;;;;;2.67;2.47;;;10.70;99.90;;;;;;4963028;28;87490;-87
2021/05/27 05:30:26;;;;;;;2.95;2.08;;;10.80;99.90;;;;;;4966300;28;87314;-88
2021/05/27 05:32:57;;;;;;;2.22;1.83;;;10.80;99.90;;;;;;4943164;28;90805;-88
2021/05/27 05:35:26;;;;;;;2.35;2.25;;;10.90;99.90;;;;;;4950713;28;86823;-87
2021/05/27 05:37:52;;;;;;;2.00;1.90;;;11.00;99.90;;;;;;4965295;28;86536;-86
2021/05/27 05:40:20;;;;;;;2.47;2.25;;;11.00;99.90;;;;;;4958277;28;88143;-87
2021/05/27 05:42:46;;;;;;;2.88;2.10;;;11.10;99.90;;;;;;4964316;28;88001;-87
2021/05/27 05:45:16;;;;;;;2.03;1.92;;;11.10;99.90;;;;;;4966382;28;87030;-85
2021/05/27 05:47:44;;;;;;;1.65;1.55;;;11.20;99.90;;;;;;4971427;28;86857;-86
2021/05/27 05:50:12;;;;;;;4.47;1.88;;;11.20;99.90;;;;;;4975521;28;87089;-86
2021/05/27 05:52:38;;;;;;;2.58;2.13;;;11.20;99.90;;;;;;4968950;28;86904;-86
2021/05/27 05:55:05;;;;;;;3.13;2.88;;;11.30;99.90;;;;;;4964261;28;86987;-86
2021/05/27 05:57:31;;;;;;;5.15;2.88;;;;;;;;;;4963660;28;85963;-86
2021/05/27 05:59:57;;;;;;;3.42;2.58;;;11.40;99.90;;;;;;4960669;28;87027;-87
2021/05/27 06:02:23;;;;;;;3.67;3.38;;;11.40;99.90;;;;;;4961013;28;87436;-86
2021/05/27 06:04:48;;;;;;;2.83;2.63;;;11.40;99.90;;;;;;4964417;28;87945;-86
2021/05/27 06:07:14;;;;;;;2.80;2.60;;;;;;;;;;4968992;28;86986;-84
2021/05/27 06:09:40;;;;;;;1.90;1.80;;;11.40;99.90;;;;;;4979032;28;87013;-86
2021/05/27 06:12:06;;;;;;;2.28;2.13;;;11.40;99.90;;;;;;4979761;28;87015;-85
2021/05/27 06:14:33;;;;;;;2.20;2.10;;;11.40;99.90;;;;;;4975743;28;86979;-85
2021/05/27 06:16:59;;;;;;;1.90;1.80;;;11.40;99.90;;;;;;4983798;28;86441;-86
2021/05/27 06:19:25;;;;;;;2.00;1.85;;;11.40;99.90;;;;;;4973434;28;86979;-88
2021/05/27 06:21:50;;;;;;;1.80;1.70;;;11.40;99.90;;;;;;4969041;28;86775;-86
2021/05/27 06:24:16;;;;;;;1.80;1.70;;;11.50;99.90;;;;;;4972058;28;86888;-87
2021/05/27 06:26:42;;;;;;;2.08;1.70;;;11.50;99.90;;;;;;4966893;28;86179;-87
2021/05/27 06:29:08;;;;;;;2.00;1.83;;;;;;;;;;4946557;28;91229;-87
2021/05/27 06:31:34;;;;;;;1.80;1.70;;;11.80;99.90;;;;;;4947848;28;89576;-83
2021/05/27 06:33:59;;;;;;;2.25;2.15;;;11.90;99.90;;;;;;4966964;28;86280;-87
2021/05/27 06:36:26;;;;;;;2.33;2.13;;;11.90;99.90;;;;;;4964930;28;86990;-87
2021/05/27 06:38:51;;;;;;;2.42;2.33;;;11.90;99.90;;;;;;4952964;28;87050;-87
2021/05/27 06:41:19;;;;;;;2.22;2.05;;;11.90;99.90;;;;;;4951801;28;87399;-87
2021/05/27 06:43:50;;;;;;;2.55;2.40;;;11.90;99.90;;;;;;4957766;28;87086;-88
2021/05/27 06:46:16;;;;;;;5.55;2.58;;;11.90;99.90;;;;;;4961331;28;86114;-88
2021/05/27 06:48:42;;;;;;;1.92;1.83;;;11.90;99.90;;;;;;4963489;28;88290;-87
2021/05/27 06:51:08;;;;;;;3.35;2.78;;;11.90;99.90;;;;;;4964677;28;87147;-87
2021/05/27 06:53:34;;;;;;;8.30;3.67;;;11.80;99.90;;;;;;4960210;28;87716;-87
2021/05/27 06:55:59;;;;;;;7.03;4.40;;;11.80;99.90;;;;;;4964992;28;87182;-87
2021/05/27 06:58:25;;;;;;;6.47;4.72;;;11.80;99.90;;;;;;4962794;28;86928;-87
2021/05/27 07:00:51;;;;;;;9.80;7.80;;;11.90;99.90;;;;;;4956807;28;87983;-86
2021/05/27 07:03:18;;;;;;;10.75;9.02;;;12.00;99.90;;;;;;4944136;28;86889;-85
2021/05/27 07:05:45;;;;;;;10.75;7.00;;;12.20;99.90;;;;;;4963863;28;87104;-87
2021/05/27 07:08:10;;;;;;;6.13;4.32;;;12.20;99.90;;;;;;4963276;28;88657;-87
2021/05/27 07:10:36;;;;;;;4.38;3.58;;;12.20;99.90;;;;;;4962961;28;86946;-86
2021/05/27 07:13:04;;;;;;;3.60;2.58;;;12.20;99.90;;;;;;4965181;28;87001;-85
2021/05/27 07:15:31;;;;;;;3.00;2.05;;;12.10;99.90;;;;;;4964749;28;87084;-86
2021/05/27 07:17:57;;;;;;;2.63;2.25;;;12.10;99.90;;;;;;4955378;28;89165;-86
2021/05/27 07:20:24;;;;;;;1.80;1.70;;;12.10;99.90;;;;;;4960676;28;87376;-86
2021/05/27 07:22:51;;;;;;;2.00;1.90;;;12.10;99.90;;;;;;4963546;28;87075;-85
2021/05/27 07:25:20;;;;;;;1.83;1.73;;;12.10;99.90;;;;;;4963703;28;86933;-85
2021/05/27 07:27:52;;;;;;;1.70;1.55;;;12.00;99.90;;;;;;4951733;28;89972;-86
2021/05/27 07:30:19;;;;;;;2.40;1.90;;;12.00;99.90;;;;;;4970208;28;86818;-85
2021/05/27 07:32:46;;;;;;;2.35;2.25;;;12.10;99.90;;;;;;4958389;28;86805;-84
2021/05/27 07:35:12;;;;;;;3.40;1.85;;;12.20;99.90;;;;;;4963779;28;85975;-83
2021/05/27 07:37:38;;;;;;;2.05;1.95;;;12.30;99.90;;;;;;4965263;28;89859;-84
2021/05/27 07:40:06;;;;;;;2.58;2.08;;;12.40;99.90;;;;;;4958452;28;87083;-85
2021/05/27 07:42:32;;;;;;;2.30;2.20;;;12.50;99.90;;;;;;4961811;28;87983;-85
2021/05/27 07:44:58;;;;;;;4.30;2.10;;;12.60;99.90;;;;;;4966789;28;86910;-85
2021/05/27 07:47:24;;;;;;;2.40;2.28;;;12.60;99.90;;;;;;4967056;28;88649;-85
2021/05/27 07:49:50;;;;;;;3.53;2.50;;;12.60;99.90;;;;;;4967217;28;87431;-85
2021/05/27 07:52:16;;;;;;;2.88;2.67;;;12.60;99.90;;;;;;4961501;28;86958;-85
2021/05/27 07:54:43;;;;;;;2.20;2.00;;;12.60;99.90;;;;;;4952475;28;86476;-85
2021/05/27 07:57:08;;;;;;;2.00;1.80;;;12.60;99.90;;;;;;4967060;28;87396;-86
2021/05/27 07:59:34;;;;;;;2.20;2.10;;;12.60;99.90;;;;;;4969028;28;87171;-85
2021/05/27 08:02:00;;;;;;;1.98;1.88;;;12.80;99.90;;;;;;4969945;28;86498;-86
2021/05/27 08:04:26;;;;;;;3.60;1.90;;;12.70;99.90;;;;;;4969454;28;86994;-86
2021/05/27 08:06:51;;;;;;;2.38;2.13;;;12.50;99.90;;;;;;4966910;28;87946;-85
2021/05/27 08:09:17;;;;;;;1.90;1.80;;;12.60;99.90;;;;;;4945268;28;90632;-85
2021/05/27 08:11:43;;;;;;;2.17;2.08;;;;;;;;;;4945205;28;87058;-86
2021/05/27 08:14:09;;;;;;;2.25;1.85;;;12.70;99.90;;;;;;4978608;28;86837;-87
2021/05/27 08:16:35;;;;;;;2.67;1.88;;;12.70;99.90;;;;;;4977123;28;87213;-86
2021/05/27 08:19:01;;;;;;;2.83;2.40;;;12.80;99.90;;;;;;4974666;28;87458;-87
2021/05/27 08:21:28;;;;;;;3.53;2.35;;;12.80;99.90;;;;;;4976836;28;86159;-85
2021/05/27 08:23:54;;;;;;;2.38;2.17;;;12.80;99.90;;;;;;4974916;28;86244;-86
2021/05/27 08:26:20;;;;;;;2.08;1.92;;;12.90;99.90;;;;;;4968516;28;87505;-86
2021/05/27 08:28:47;;;;;;;1.90;1.80;;;12.90;99.90;;;;;;4962435;28;88205;-86
2021/05/27 08:31:16;;;;;;;2.40;2.20;;;12.80;99.90;;;;;;4949642;28;88273;-86
2021/05/27 08:33:42;;;;;;;2.58;2.38;;;12.90;99.90;;;;;;4968789;28;86626;-84
2021/05/27 08:36:08;;;;;;;2.38;2.17;;;12.90;99.90;;;;;;4969557;28;87194;-84
2021/05/27 08:38:34;;;;;;;2.35;2.15;;;13.00;99.90;;;;;;4962255;28;86876;-84
2021/05/27 08:41:00;;;;;;;2.08;1.80;;;13.10;99.90;;;;;;4967609;28;86974;-85
2021/05/27 08:43:28;;;;;;;2.78;2.03;;;13.10;99.90;;;;;;4958808;28;86973;-86
2021/05/27 08:45:54;;;;;;;3.55;2.00;;;13.10;99.90;;;;;;4967502;28;86548;-86
2021/05/27 08:48:20;;;;;;;3.58;2.10;;;13.20;99.90;;;;;;4965728;28;86853;-86
2021/05/27 08:50:47;;;;;;;2.88;2.40;;;13.20;99.90;;;;;;4953804;28;87045;-86
2021/05/27 08:53:15;;;;;;;1.92;1.83;;;13.20;99.90;;;;;;4964802;28;86587;-85
2021/05/27 08:55:42;;;;;;;2.15;2.05;;;13.20;99.90;;;;;;4964286;28;88333;-85
2021/05/27 08:58:08;;;;;;;2.22;2.03;;;13.20;99.90;;;;;;4964501;28;88108;-87
2021/05/27 09:00:35;;;;;;;1.75;1.65;;;13.30;99.90;;;;;;4966468;28;86648;-86
2021/05/27 09:03:02;;;;;;;1.92;1.83;;;13.40;99.90;;;;;;4966828;28;86908;-85
2021/05/27 09:05:31;;;;;;;2.15;1.95;;;13.60;99.90;;;;;;4964336;28;88502;-87
2021/05/27 09:07:57;;;;;;;1.98;1.88;;;13.60;99.90;;;;;;4945426;28;90224;-85
2021/05/27 09:10:45;;;;;;;1.70;1.60;;;13.50;99.90;;;;;;4966964;28;86844;-86
2021/05/27 09:13:18;;;;;;;1.70;1.60;;;13.40;99.90;;;;;;4968055;28;85877;-86
2021/05/27 09:15:49;;;;;;;2.13;1.98;;;13.40;99.90;;;;;;4971709;28;87270;-86
2021/05/27 09:18:31;;;;;;;1.85;1.75;;;13.30;99.90;;;;;;4965639;28;88423;-86
2021/05/27 09:20:57;;;;;;;2.08;1.98;;;13.40;99.90;;;;;;4965318;28;87947;-86
2021/05/27 09:23:23;;;;;;;2.00;1.70;;;13.40;99.90;;;;;;4968111;28;86916;-86
2021/05/27 09:25:52;;;;;;;1.77;1.67;;;13.50;99.90;;;;;;4968165;28;88134;-84
2021/05/27 09:28:22;;;;;;;2.10;2.00;;;13.60;99.90;;;;;;4969606;28;86941;-85
2021/05/27 09:30:59;;;;;;;2.20;2.00;;;13.60;99.90;;;;;;4970692;28;87314;-84
2021/05/27 09:33:36;;;;;;;3.47;1.70;;;13.70;99.90;;;;;;4967034;28;86857;-84
2021/05/27 09:36:23;;;;;;;1.67;1.58;;;13.70;99.90;;;;;;4968612;28;89358;-85
2021/05/27 09:38:55;;;;;;;1.95;1.85;;;13.50;99.90;;;;;;4961001;28;87939;-84
2021/05/27 09:41:34;;;;;;;2.20;2.00;;;13.40;99.90;;;;;;4939128;28;87273;-87
2021/05/27 09:44:02;;;;;;;1.95;1.85;;;13.20;99.90;;;;;;4954324;28;86636;-84
2021/05/27 09:46:46;;;;;;;2.17;2.08;;;12.90;99.90;;;;;;4950530;28;88735;-86
2021/05/27 09:49:12;;;;;;;1.90;1.80;;;12.90;99.90;;;;;;4950895;28;89780;-86
2021/05/27 09:51:38;;;;;;;2.08;1.98;;;13.00;99.90;;;;;;4967424;28;86834;-86
2021/05/27 09:54:04;;;;;;;2.55;2.08;;;13.10;99.90;;;;;;4935177;28;86493;-86
2021/05/27 09:56:40;;;;;;;2.47;2.20;;;13.10;99.90;;;;;;4951830;28;87243;-86
2021/05/27 09:59:07;;;;;;;1.77;1.67;;;13.20;99.90;;;;;;4965396;28;87524;-85
2021/05/27 10:01:32;;;;;;;2.50;2.25;;;13.30;99.90;;;;;;4960396;28;86976;-84
2021/05/27 10:04:15;;;;;;;3.15;2.40;;;13.40;99.90;;;;;;4966247;28;85774;-85
2021/05/27 10:06:42;;;;;;;2.33;2.20;;;13.50;99.90;;;;;;4967506;28;87855;-84
2021/05/27 10:09:09;;;;;;;2.38;2.05;;;13.40;99.90;;;;;;4966383;28;86923;-84
2021/05/27 10:11:38;;;;;;;2.28;2.17;;;13.40;99.90;;;;;;4962674;28;87539;-85
2021/05/27 10:14:04;;;;;;;3.13;2.50;;;13.50;99.90;;;;;;4961445;28;86381;-83
2021/05/27 10:16:32;;;;;;;3.05;2.75;;;13.70;99.90;;;;;;4965518;28;87601;-85
2021/05/27 10:18:58;;;;;;;2.60;2.20;;;13.80;99.90;;;;;;4947007;28;87385;-86
2021/05/27 10:21:25;;;;;;;3.22;2.92;;;13.80;99.90;;;;;;4964163;28;86523;-86
2021/05/27 10:23:52;;;;;;;3.72;2.38;;;13.70;99.90;;;;;;4949694;28;86804;-86
2021/05/27 10:26:19;;;;;;;2.35;2.15;;;13.70;99.90;;;;;;4962432;28;87816;-86
2021/05/27 10:28:51;;;;;;;2.15;2.05;;;14.00;99.90;;;;;;4965888;28;87672;-86
2021/05/27 10:31:20;;;;;;;2.05;1.95;;;14.10;99.90;;;;;;4964498;28;86852;-84
2021/05/27 10:33:47;;;;;;;3.65;2.22;;;14.30;99.90;;;;;;4956032;28;87039;-85
2021/05/27 10:36:13;;;;;;;5.05;2.67;;;14.40;99.90;;;;;;4961614;28;88373;-85
2021/05/27 10:38:39;;;;;;;2.60;2.40;;;14.50;99.90;;;;;;4970950;28;88008;-83
2021/05/27 10:41:22;;;;;;;2.75;2.55;;;14.50;99.90;;;;;;4978233;28;86820;-84
2021/05/27 10:44:03;;;;;;;2.38;2.15;;;14.40;99.70;;;;;;4958121;28;87078;-86
2021/05/27 10:46:53;;;;;;;2.63;2.42;;;14.30;99.20;;;;;;4973803;28;86788;-85
2021/05/27 10:49:47;;;;;;;3.03;2.72;;;14.30;99.90;;;;;;4964392;28;87657;-84
2021/05/27 10:52:32;;;;;;;3.10;2.47;;;14.40;99.90;;;;;;4959848;28;86967;-84
2021/05/27 10:55:00;;;;;;;2.78;2.45;;;14.30;99.90;;;;;;4957202;28;86130;-84
2021/05/27 10:57:44;;;;;;;4.57;2.53;;;14.20;99.90;;;;;;4961964;28;86647;-87
2021/05/27 11:00:19;;;;;;;3.30;2.38;;;14.30;99.90;;;;;;4956278;28;86947;-85
2021/05/27 11:02:44;;;;;;;2.22;2.13;;;14.50;99.90;;;;;;4956592;28;87672;-84
2021/05/27 11:05:17;;;;;;;2.83;2.50;;;14.50;99.50;;;;;;4966334;28;87065;-85
2021/05/27 11:08:21;;;;;;;2.80;2.60;;;14.70;99.50;;;;;;4948789;28;89145;-85
2021/05/27 11:10:47;;;;;;;2.67;2.47;;;14.90;99.70;;;;;;4964993;28;87722;-86
2021/05/27 11:13:13;;;;;;;2.50;2.13;;;15.80;99.30;;;;;;4970292;28;87816;-86
2021/05/27 11:16:03;;;;;;;2.35;2.17;;;15.80;99.20;;;;;;4962995;28;86567;-84
2021/05/27 11:18:33;;;;;;;4.78;2.80;;;16.70;96.00;;;;;;4943404;28;89014;-84
2021/05/27 11:21:36;;;;;;;2.25;2.10;;;17.20;96.60;;;;;;4965045;28;86393;-83
2021/05/27 11:27:24;;;;;;;3.03;2.83;;;17.30;91.90;;;;;;4973087;28;87050;-83
2021/05/27 11:30:15;;;;;;;2.20;2.10;;;17.10;92.40;;;;;;4979682;28;88184;-83
2021/05/27 11:32:42;;;;;;;2.30;2.17;;;16.80;92.90;;;;;;4953541;28;91148;-84
2021/05/27 11:35:08;;;;;;;3.85;2.13;;;16.50;92.70;;;;;;4981782;28;86797;-83
2021/05/27 11:37:35;;;;;;;2.38;2.28;;;16.30;93.60;;;;;;4975392;28;86239;-84
2021/05/27 11:40:03;;;;;;;2.67;2.40;;;16.10;93.90;;;;;;4945924;28;88312;-84
2021/05/27 11:42:29;;;;;;;2.38;1.83;;;15.80;94.00;;;;;;4967718;28;90409;-83
2021/05/27 11:45:00;;;;;;;4.10;2.40;;;15.60;94.30;;;;;;4961774;28;86547;-84
2021/05/27 11:47:27;;;;;;;2.45;2.03;;;15.40;94.50;;;;;;4968453;28;86038;-85
2021/05/27 11:50:13;;;;;;;3.40;2.63;;;15.20;94.70;;;;;;4976838;28;86987;-83
2021/05/27 11:52:40;;;;;;;2.22;2.13;;;15.10;95.00;;;;;;4979175;28;86386;-84
2021/05/27 11:55:11;;;;;;;2.20;2.10;;;14.90;94.30;;;;;;4981288;28;87074;-84
2021/05/27 11:57:48;;;;;;;3.85;2.40;;;14.70;93.50;;;;;;4968607;28;86977;-85
2021/05/27 12:00:16;;;;;;;3.25;2.30;;;15.00;94.30;;;;;;4973376;28;87380;-84
2021/05/27 12:02:47;;;;;;;2.55;2.35;;;15.60;95.10;;;;;;4960209;28;87238;-85
2021/05/27 12:05:29;;;;;;;2.58;2.42;;;16.30;92.90;;;;;;4968040;28;86893;-84
2021/05/27 12:08:04;;;;;;;2.55;2.35;;;16.80;92.30;;;;;;4943897;28;87390;-85
2021/05/27 12:10:44;;;;;;;2.60;2.40;;;16.40;92.00;;;;;;4951936;28;90678;-84
2021/05/27 12:13:21;;;;;;;3.08;2.35;;;16.40;90.70;;;;;;4965378;28;86305;-85
2021/05/27 12:15:47;;;;;;;2.33;2.20;;;16.40;92.00;;;;;;4952277;28;86542;-84
2021/05/27 12:18:18;;;;;;;2.80;2.60;;;16.10;92.10;;;;;;4958762;28;87442;-84
2021/05/27 12:20:50;;;;;;;2.60;2.40;;;16.10;92.10;;;;;;4955246;28;87989;-85
2021/05/27 12:23:20;;;;;;;2.72;2.42;;;16.00;92.10;;;;;;4972383;28;87781;-85
2021/05/27 12:25:52;;;;;;;2.22;2.08;;;15.90;92.60;;;;;;4965372;28;86737;-85
2021/05/27 12:28:19;;;;;;;2.47;1.98;;;15.90;91.00;;;;;;4968316;28;87059;-84
2021/05/27 12:30:55;;;;;;;3.17;2.55;;;16.00;91.60;;;;;;4954155;28;90394;-84
2021/05/27 12:33:23;;;;;;;2.28;2.08;;;16.00;90.70;;;;;;4972645;28;87370;-85
2021/05/27 12:35:50;;;;;;;2.38;2.28;;;16.00;91.50;;;;;;4969751;28;86726;-85
2021/05/27 12:38:22;;;;;;;2.67;2.47;;;16.10;91.60;;;;;;4963437;28;86348;-85
2021/05/27 12:41:06;;;;;;;2.10;2.00;;;16.20;90.10;;;;;;4970184;28;87683;-86
2021/05/27 12:43:34;;;;;;;2.08;1.95;;;16.30;91.20;;;;;;4950811;28;88904;-84
2021/05/27 12:46:02;;;;;;;2.78;2.40;;;16.40;92.10;;;;;;4967579;28;87604;-84
2021/05/27 12:48:33;;;;;;;2.17;2.08;;;16.60;91.00;;;;;;4959634;28;86451;-84
2021/05/27 12:51:07;;;;;;;;;;;16.50;89.40;;;;;;4957705;28;87956;-84
2021/05/27 12:53:39;;;;;;;1.80;1.70;;;16.20;90.70;;;;;;4962292;28;87100;-84
2021/05/27 12:56:11;;;;;;;2.00;1.90;;;15.80;90.60;;;;;;4969047;28;86764;-85
2021/05/27 12:58:38;;;;;;;2.28;1.90;;;15.80;90.40;;;;;;4975199;28;87152;-84
2021/05/27 13:01:07;;;;;;;1.80;1.70;;;15.90;91.20;;;;;;4975332;28;86877;-84
2021/05/27 13:03:47;;;;;;;2.00;1.90;;;16.00;91.80;;;;;;4968843;28;86609;-84
2021/05/27 13:06:17;;;;;;;2.08;1.98;;;15.90;90.40;;;;;;4968304;28;86626;-84
2021/05/27 13:08:43;;;;;;;;;;;15.90;87.70;;;;;;4971435;28;86939;-84
2021/05/27 13:11:19;;;;;;;4.43;2.17;;;15.90;87.10;;;;;;4970944;28;88037;-85
2021/05/27 13:13:45;;;;;;;1.95;1.85;;;15.90;87.10;;;;;;4963427;28;87896;-84
2021/05/27 13:16:38;;;;;;;2.05;1.90;;;15.90;88.20;;;;;;4961340;28;87073;-84
2021/05/27 13:19:07;;;;;;;2.00;1.52;;;15.70;86.60;;;;;;4952405;28;87017;-84
2021/05/27 13:21:53;;;;;;;2.08;1.83;;;15.80;88.00;;;;;;4973259;28;87282;-85
2021/05/27 13:24:25;;;;;;;2.00;1.90;;;15.80;89.40;;;;;;4969175;28;86928;-85
2021/05/27 13:27:03;;;;;;;2.00;1.90;;;16.00;89.10;;;;;;4972949;28;87005;-85
2021/05/27 13:29:44;;;;;;;1.85;1.70;;;16.30;89.50;;;;;;4971979;28;85834;-84
2021/05/27 13:32:23;;;;;;;2.17;2.08;;;16.80;88.70;;;;;;4969721;28;88207;-84
2021/05/27 13:34:50;;;;;;;3.70;2.30;;;17.30;86.90;;;;;;4969897;28;86919;-83
2021/05/27 13:37:28;;;;;;;2.45;2.35;;;17.50;83.20;;;;;;4972857;28;87793;-84
2021/05/27 13:39:54;;;;;;;2.83;2.63;;;18.40;85.30;;;;;;4963061;28;86482;-83
2021/05/27 13:42:20;;;;;;;2.35;2.25;;;19.20;78.00;;;;;;4970316;28;87174;-85
2021/05/27 13:44:46;;;;;;;2.60;2.08;;;19.50;79.20;;;;;;4972256;28;87033;-84
2021/05/27 13:47:11;;;;;;;2.33;2.10;;;19.70;76.00;;;;;;4968119;28;86982;-85
2021/05/27 13:49:38;;;;;;;2.28;2.00;;;19.70;76.40;;;;;;4961743;28;87071;-85
2021/05/27 13:52:05;;;;;;;2.35;2.15;;;19.70;75.40;;;;;;4973474;28;86940;-85
2021/05/27 13:54:30;;;;;;;2.47;2.22;;;19.60;76.70;;;;;;4968811;28;86895;-84
2021/05/27 13:56:56;;;;;;;2.70;2.50;;;19.50;76.70;;;;;;4964881;28;86911;-84
2021/05/27 13:59:22;;;;;;;2.10;2.00;;;19.30;77.60;;;;;;4975022;28;86909;-85
2021/05/27 14:01:50;;;;;;;3.03;2.63;;;19.20;76.80;;;;;;4961079;28;88529;-85
2021/05/27 14:04:16;;;;;;;2.88;2.67;;;19.00;77.20;;;;;;4961216;28;87107;-83
2021/05/27 14:06:42;;;;;;;2.20;2.05;;;18.60;77.50;;;;;;4958889;28;87139;-84
2021/05/27 14:09:09;;;;;;;2.20;2.10;;;18.40;78.60;;;;;;4955090;28;86974;-83
2021/05/27 14:11:38;;;;;;;2.42;2.22;;;18.20;79.20;;;;;;4966588;28;88083;-84
2021/05/27 14:14:06;;;;;;;2.22;2.03;;;18.10;78.30;;;;;;4971624;28;87126;-83
2021/05/27 14:16:35;;;;;;;2.17;2.08;;;17.80;78.80;;;;;;4972153;28;87570;-85
2021/05/27 14:19:01;;;;;;;2.25;2.15;;;17.70;80.90;;;;;;4976468;28;86122;-86
2021/05/27 14:21:26;;;;;;;2.28;2.15;;;17.50;81.30;;;;;;4975489;28;87779;-85
2021/05/27 14:23:52;;;;;;;2.10;2.00;;;17.40;82.70;;;;;;4977500;28;86801;-86
2021/05/27 14:26:18;;;;;;;3.10;2.20;;;17.30;82.70;;;;;;4961077;28;87875;-84
2021/05/27 14:28:43;;;;;;;2.80;2.70;;;17.20;83.10;;;;;;4973810;28;87004;-85
2021/05/27 14:31:09;;;;;;;2.83;2.47;;;17.00;81.30;;;;;;4976474;28;86801;-85
2021/05/27 14:33:35;;;;;;;2.10;1.95;;;17.00;80.90;;;;;;4969381;28;87051;-86
2021/05/27 14:36:00;;;;;;;2.70;2.50;;;16.90;83.00;;;;;;4968253;28;86362;-85
2021/05/27 14:38:26;;;;;;;3.22;2.25;;;16.80;81.60;;;;;;4963181;28;86908;-84
2021/05/27 14:40:54;;;;;;;2.30;2.10;;;16.70;81.80;;;;;;4966174;28;87178;-84
2021/05/27 14:43:20;;;;;;;3.97;2.30;;;16.80;81.70;;;;;;4961279;28;86952;-84
2021/05/27 14:45:46;;;;;;;3.63;2.95;;;16.80;82.80;;;;;;4961794;28;86941;-84
2021/05/27 14:48:11;;;;;;;2.33;2.10;;;16.90;84.90;;;;;;4965835;28;87075;-87
2021/05/27 14:50:40;;;;;;;2.65;2.13;;;17.00;83.80;;;;;;4972353;28;88414;-84
2021/05/27 14:53:06;;;;;;;2.40;2.20;;;17.00;82.50;;;;;;4965987;28;88431;-84
2021/05/27 14:55:32;;;;;;;2.75;2.55;;;17.00;83.40;;;;;;4964432;28;86972;-85
2021/05/27 14:57:58;;;;;;;2.58;2.38;;;17.00;85.10;;;;;;4966815;28;87374;-84
2021/05/27 15:00:24;;;;;;;2.55;2.40;;;17.10;84.60;;;;;;4966068;28;88455;-85
2021/05/27 15:02:51;;;;;;;2.70;2.50;;;17.30;89.20;;;;;;4966088;28;87706;-84
2021/05/27 15:05:17;;;;;;;2.13;2.03;;;17.50;84.00;;;;;;4950784;28;86773;-85
2021/05/27 15:07:43;;;;;;;1.90;1.80;;;17.80;80.40;;;;;;4965694;28;86172;-85
2021/05/27 15:10:10;;;;;;;2.28;2.17;;;18.00;79.90;;;;;;4965485;28;86943;-84
2021/05/27 15:12:37;;;;;;;2.88;2.60;;;18.40;79.60;;;;;;4969989;28;86933;-84
2021/05/27 15:15:03;;;;;;;2.90;2.70;;;18.60;78.00;;;;;;4969507;28;87896;-84
2021/05/27 15:17:29;;;;;;;3.17;2.97;;;18.70;77.80;;;;;;4960806;28;88080;-84
2021/05/27 15:19:55;;;;;;;3.17;2.97;;;18.80;79.40;;;;;;4960709;28;87568;-85
2021/05/27 15:22:20;;;;;;;2.67;2.50;;;19.00;80.40;;;;;;4970086;28;87338;-84
2021/05/27 15:24:48;;;;;;;2.80;2.60;;;18.90;76.70;;;;;;4969177;28;87043;-85
2021/05/27 15:27:14;;;;;;;2.40;2.20;;;18.90;79.00;;;;;;4966431;28;87075;-84
2021/05/27 15:29:40;;;;;;;2.65;2.45;;;18.70;77.10;;;;;;4968864;28;87275;-85
2021/05/27 15:32:09;;;;;;;2.53;2.40;;;18.80;79.40;;;;;;4949009;28;90794;-85
2021/05/27 15:34:35;;;;;;;2.85;2.65;;;18.90;80.90;;;;;;4967597;28;86917;-86
2021/05/27 15:37:01;;;;;;;3.55;2.33;;;18.90;77.30;;;;;;4965671;28;87124;-85
2021/05/27 15:39:27;;;;;;;3.90;2.20;;;18.90;76.60;;;;;;4958032;28;88265;-87
2021/05/27 15:41:53;;;;;;;2.90;2.70;;;18.60;78.10;;;;;;4971822;28;88097;-85
2021/05/27 15:44:18;;;;;;;2.83;2.38;;;18.50;78.00;;;;;;4972062;28;87114;-85
2021/05/27 15:46:44;;;;;;;2.33;2.22;;;18.40;80.00;;;;;;4963591;28;86948;-84
2021/05/27 15:49:12;;;;;;;2.75;2.55;;;18.50;79.60;;;;;;4963837;28;87036;-84
2021/05/27 15:51:38;;;;;;;2.47;2.38;;;18.50;79.40;;;;;;4969373;28;87078;-84
2021/05/27 15:54:04;;;;;;;3.45;2.20;;;18.50;78.40;;;;;;4971668;28;86905;-83